Terminal Aerodrome Forecast
Issued by NWS

Home | Current Version | Previous Version | Text Only | Print | Product List | Glossary On
Versions: 1 2 3 4 5 6 7 8 9 10 11 12 13
000
FTUS45 KBOI 192348
TAFTWF
TAF
KTWF 192348Z 2000/2024 18010KT P6SM FEW250
     FM201200 23013G23KT P6SM -RA SCT030 OVC060
     FM201800 26018G28KT P6SM -SHRA BKN060=

USA.gov is the U.S. government's official web portal to all federal, state and local government web resources and services.